Time;durP1;ratioP1;P1;durP2;ratioP2;P2;SDS_P1;SDS_P2;PMS_P1;PMS_P2;Temp;Humidity;BMP_temperature;BMP_pressure;BME280_temperature;BME280_humidity;BME280_pressure;Samples;Min_cycle;Max_cycle;Signal;HPM_P1;HPM_P2
2021/04/17 03:01:21;;;;;;;14.98;10.48;;;;;;;4.19;100.00;100604.39;1761350;78;21188;-67
2021/04/17 03:03:49;;;;;;;14.60;10.18;;;;;;;4.16;100.00;100602.87;1788024;78;20997;-67
2021/04/17 03:06:18;;;;;;;15.70;10.98;;;;;;;4.19;100.00;100608.26;1793436;78;20979;-67
2021/04/17 03:08:46;;;;;;;16.37;11.05;;;;;;;4.22;100.00;100604.13;1799339;78;21582;-67
2021/04/17 03:11:14;;;;;;;16.82;11.00;;;;;;;4.23;100.00;100601.88;1790119;78;21141;-65
2021/04/17 03:13:55;;;;;;;11.60;9.25;;;;;;;4.25;100.00;100602.58;1581657;88;22253;-66
2021/04/17 03:16:23;;;;;;;13.98;10.08;;;;;;;4.23;100.00;100606.56;1587619;88;21581;-66
2021/04/17 03:18:52;;;;;;;16.27;11.43;;;;;;;4.21;100.00;100607.19;1588513;88;21198;-62
2021/04/17 03:21:21;;;;;;;15.58;11.60;;;;;;;4.17;100.00;100607.56;1588478;88;21274;-68
2021/04/17 03:23:50;;;;;;;16.77;12.45;;;;;;;4.14;100.00;100608.19;1573470;89;21613;-67
2021/04/17 03:26:18;;;;;;;17.07;11.33;;;;;;;4.14;100.00;100612.53;1586422;88;21301;-67
2021/04/17 03:28:47;;;;;;;17.40;12.80;;;;;;;4.17;100.00;100611.43;1573122;89;21220;-64
2021/04/17 03:31:15;;;;;;;18.52;14.13;;;;;;;4.20;100.00;100611.17;1580264;88;21616;-67
2021/04/17 03:33:43;;;;;;;19.07;14.30;;;;;;;4.30;100.00;100614.59;1625616;86;21132;-67
2021/04/17 03:36:13;;;;;;;24.18;14.18;;;;;;;4.71;100.00;100621.30;1594907;89;21034;-68
2021/04/17 03:38:41;;;;;;;15.68;11.60;;;;;;;5.45;100.00;100614.16;1718578;79;22412;-62
2021/04/17 03:41:09;;;;;;;16.62;12.53;;;;;;;6.37;100.00;100623.71;1732667;80;21665;-67
2021/04/17 03:43:38;;;;;;;13.78;10.53;;;;;;;7.42;100.00;100626.80;1729192;82;21212;-66
2021/04/17 03:46:06;;;;;;;15.70;11.37;;;;;;;8.51;100.00;100616.51;1759792;80;22272;-67
2021/04/17 03:48:36;;;;;;;13.50;9.70;;;;;;;9.60;100.00;100611.87;1718443;82;21389;-64
2021/04/17 03:51:05;;;;;;;13.57;9.47;;;;;;;10.68;100.00;100607.56;1732063;82;21266;-68
2021/04/17 03:53:33;;;;;;;13.20;10.10;;;;;;;11.74;100.00;100606.18;1736376;82;21864;-66
2021/04/17 03:56:02;;;;;;;14.83;11.10;;;;;;;12.75;100.00;100595.31;1722978;80;22037;-66
2021/04/17 03:58:30;;;;;;;13.63;10.40;;;;;;;13.66;100.00;100588.27;1742697;80;21818;-66
2021/04/17 04:00:59;;;;;;;11.30;9.33;;;;;;;14.38;100.00;100578.19;1728203;80;21571;-66
2021/04/17 04:03:27;;;;;;;14.73;9.63;;;;;;;14.91;100.00;100580.86;1729391;81;22112;-66
2021/04/17 04:05:56;;;;;;;13.47;10.20;;;;;;;15.37;100.00;100578.66;1713176;81;21104;-66
2021/04/17 04:08:24;;;;;;;11.40;9.13;;;;;;;15.87;100.00;100575.75;1714651;82;21034;-66
2021/04/17 04:10:53;;;;;;;12.30;9.67;;;;;;;16.42;100.00;100577.88;1719045;83;21149;-66
2021/04/17 04:13:22;;;;;;;11.80;9.00;;;;;;;16.92;100.00;100580.53;1712743;83;21137;-66
2021/04/17 04:15:51;;;;;;;11.07;9.13;;;;;;;17.21;100.00;100585.11;1726014;82;21346;-70
2021/04/17 04:18:19;;;;;;;11.13;8.90;;;;;;;17.08;100.00;100585.23;1737901;82;21173;-68
2021/04/17 04:20:47;;;;;;;26.20;18.93;;;;;;;16.54;100.00;100595.38;1707051;83;21090;-68
2021/04/17 04:23:16;;;;;;;10.70;9.17;;;;;;;15.94;100.00;100588.88;1766857;80;21085;-69
2021/04/17 04:25:58;;;;;;;20.17;17.13;;;;;;;15.31;100.00;100594.75;1717341;82;21666;-65
2021/04/17 04:28:26;;;;;;;17.60;14.63;;;;;;;15.26;100.00;100603.22;1702038;82;22594;-69
2021/04/17 04:30:55;;;;;;;13.87;10.73;;;;;;;15.32;100.00;100602.41;1735604;82;21207;-68
2021/04/17 04:33:24;;;;;;;13.43;9.87;;;;;;;14.87;100.00;100601.96;1730167;80;21006;-68
2021/04/17 04:35:53;;;;;;;11.50;9.63;;;;;;;14.02;100.00;100609.48;1710536;80;21011;-66
2021/04/17 04:38:21;;;;;;;11.43;10.23;;;;;;;13.19;100.00;100608.63;1694618;83;21786;-68
2021/04/17 04:40:50;;;;;;;12.30;10.93;;;;;;;12.28;100.00;100612.38;1731456;82;21354;-68
2021/04/17 04:43:18;;;;;;;12.47;11.17;;;;;;;11.53;100.00;100620.79;1737179;82;21149;-69
2021/04/17 04:45:47;;;;;;;12.80;10.90;;;;;;;11.14;100.00;100624.95;1700079;82;20953;-68
2021/04/17 04:48:15;;;;;;;29.50;26.00;;;;;;;10.99;100.00;100624.11;1715719;83;21192;-68
2021/04/17 04:50:45;;;;;;;17.23;15.40;;;;;;;10.78;100.00;100617.74;1699204;84;21245;-68
2021/04/17 04:53:13;;;;;;;15.53;13.67;;;;;;;10.46;100.00;100624.02;1738854;80;22551;-67
2021/04/17 04:55:42;;;;;;;14.13;12.30;;;;;;;10.13;100.00;100625.97;1743186;80;21157;-69
2021/04/17 04:58:10;;;;;;;14.40;12.90;;;;;;;9.85;100.00;100616.02;1735757;80;22324;-68
2021/04/17 05:00:38;;;;;;;13.40;12.00;;;;;;;9.75;100.00;100625.31;1745205;81;22869;-65
2021/04/17 05:03:07;;;;;;;14.30;11.70;;;;;;;9.76;100.00;100623.52;1703766;83;22426;-66
2021/04/17 05:05:35;;;;;;;15.20;12.40;;;;;;;9.77;100.00;100622.53;1717786;82;21717;-67
2021/04/17 05:08:05;;;;;;;15.83;14.13;;;;;;;9.75;100.00;100628.41;1730338;82;21879;-67
2021/04/17 05:10:33;;;;;;;14.57;13.03;;;;;;;9.75;100.00;100628.41;1721828;81;21776;-68
2021/04/17 05:13:02;;;;;;;16.73;14.07;;;;;;;9.71;100.00;100629.73;1705947;83;21814;-67
2021/04/17 05:15:31;;;;;;;15.00;12.60;;;;;;;9.86;100.00;100633.74;1718427;82;21640;-68
2021/04/17 05:17:59;;;;;;;13.43;11.30;;;;;;;11.80;100.00;100626.36;1729601;82;21773;-66
2021/04/17 05:20:29;;;;;;;13.30;10.90;;;;;;;11.80;100.00;100626.36;1710537;82;21963;-67
2021/04/17 05:22:58;;;;;;;12.80;11.47;;;;;;;12.68;100.00;100608.33;1692375;83;21728;-68
2021/04/17 05:25:27;;;;;;;17.00;15.20;;;;;;;13.38;100.00;100609.28;1726578;80;21216;-67
2021/04/17 05:27:55;;;;;;;12.63;11.10;;;;;;;14.23;100.00;100602.77;1720143;82;21155;-66
2021/04/17 05:30:24;;;;;;;10.97;9.30;;;;;;;15.20;100.00;100599.31;1743099;82;22784;-64
2021/04/17 05:32:53;;;;;;;8.83;7.93;;;;;;;16.25;100.00;100599.44;1742654;80;21210;-66
2021/04/17 05:35:21;;;;;;;9.70;8.70;;;;;;;17.13;100.00;100589.35;1749529;82;21017;-67
2021/04/17 05:37:50;;;;;;;9.97;8.97;;;;;;;17.93;100.00;100591.11;1744118;82;21026;-67
2021/04/17 05:40:19;;;;;;;10.23;8.60;;;;;;;18.58;100.00;100595.12;1738415;82;21085;-68
2021/04/17 05:42:47;;;;;;;10.23;9.13;;;;;;;19.14;85.05;100599.09;1735523;82;21197;-67
2021/04/17 05:45:17;;;;;;;9.60;8.20;;;;;;;19.59;81.29;100596.33;1774483;80;21173;-68
2021/04/17 05:47:45;;;;;;;8.27;6.47;;;;;;;20.03;71.85;100598.77;1740712;80;21618;-68
2021/04/17 05:50:16;;;;;;;6.53;5.87;;;;;;;20.42;62.91;100594.96;1735138;80;21179;-66
2021/04/17 05:52:44;;;;;;;6.07;5.00;;;;;;;20.69;54.93;100597.00;1737688;80;21178;-66
2021/04/17 05:55:14;;;;;;;6.40;5.53;;;;;;;20.75;49.62;100598.14;1736693;80;21354;-69
2021/04/17 05:57:42;;;;;;;5.83;5.23;;;;;;;20.61;49.61;100596.36;1739944;80;21639;-68
2021/04/17 06:00:12;;;;;;;7.07;6.37;;;;;;;20.62;49.27;100594.52;1738046;80;21049;-66
2021/04/17 06:02:41;;;;;;;6.90;5.33;;;;;;;20.79;48.65;100598.46;1736868;80;22587;-67
2021/04/17 06:05:11;;;;;;;5.17;4.40;;;;;;;20.84;48.00;100598.03;1743113;80;21198;-68
2021/04/17 06:07:40;;;;;;;;;;;;;;;20.56;43.55;100594.94;1741989;80;21035;-68
2021/04/17 06:10:11;;;;;;;4.97;4.43;;;;;;;19.88;44.60;100598.48;1743040;80;20268;-65
2021/04/17 06:12:39;;;;;;;7.23;4.67;;;;;;;19.18;48.24;100600.23;1736378;80;21145;-67
2021/04/17 06:15:11;;;;;;;4.87;4.37;;;;;;;18.88;51.74;100604.31;1733270;80;21569;-66
2021/04/17 06:17:39;;;;;;;4.10;3.57;;;;;;;18.75;50.94;100609.00;1735804;80;21151;-68
2021/04/17 06:20:10;;;;;;;5.47;4.20;;;;;;;18.55;49.91;100607.45;1727584;80;21368;-68
2021/04/17 06:22:38;;;;;;;4.10;3.47;;;;;;;18.61;50.04;100609.20;1738278;80;21001;-67
2021/04/17 06:25:08;;;;;;;4.57;3.60;;;;;;;18.70;45.68;100605.70;1736289;80;21598;-67
2021/04/17 06:27:38;;;;;;;4.60;3.53;;;;;;;18.19;44.50;100615.81;1703062;82;21256;-66
2021/04/17 06:30:08;;;;;;;4.70;3.53;;;;;;;17.40;43.58;100624.66;1729766;80;21271;-68
2021/04/17 06:32:36;;;;;;;7.50;3.73;;;;;;;16.48;45.61;100629.66;1685662;82;21224;-69
2021/04/17 06:35:07;;;;;;;6.53;4.17;;;;;;;15.62;49.30;100637.91;1687702;82;21121;-69
2021/04/17 06:37:35;;;;;;;5.33;3.53;;;;;;;14.90;54.98;100640.42;1695704;82;21087;-67
2021/04/17 06:40:06;;;;;;;6.23;4.50;;;;;;;14.22;62.55;100649.67;1736471;80;21568;-70
2021/04/17 06:42:36;;;;;;;;;;;;;;;13.64;70.41;100654.47;1739759;80;20997;-68
2021/04/17 06:45:06;;;;;;;5.57;4.33;;;;;;;13.16;75.86;100655.62;1733841;80;21182;-68
2021/04/17 06:47:35;;;;;;;5.77;4.20;;;;;;;12.70;83.05;100659.96;1731657;82;21053;-66
2021/04/17 06:50:08;;;;;;;7.47;4.90;;;;;;;12.34;87.44;100667.83;1726371;80;21128;-66
2021/04/17 06:52:39;;;;;;;6.73;4.37;;;;;;;11.98;96.00;100672.54;1730735;81;21124;-65
2021/04/17 06:55:09;;;;;;;9.03;6.00;;;;;;;11.71;100.00;100677.88;1702984;82;22170;-65
2021/04/17 06:57:38;;;;;;;8.40;6.27;;;;;;;11.45;100.00;100681.73;1713892;80;21348;-65
2021/04/17 07:00:10;;;;;;;9.10;5.73;;;;;;;11.25;100.00;100689.75;1705764;80;21255;-65
2021/04/17 07:02:38;;;;;;;9.08;5.62;;;;;;;11.03;100.00;100682.77;1716139;80;21769;-66
2021/04/17 07:05:10;;;;;;;8.15;5.85;;;;;;;10.83;100.00;100686.31;1712104;80;21151;-67
2021/04/17 07:07:38;;;;;;;10.73;7.83;;;;;;;10.62;100.00;100690.38;1717157;80;21080;-67
2021/04/17 07:10:11;;;;;;;8.83;6.97;;;;;;;10.48;100.00;100691.10;1713568;80;21951;-65
2021/04/17 07:12:39;;;;;;;8.10;5.10;;;;;;;10.44;100.00;100690.63;1712060;80;21770;-65
2021/04/17 07:15:11;;;;;;;9.83;5.53;;;;;;;10.52;100.00;100693.69;1716044;80;21710;-65
2021/04/17 07:17:39;;;;;;;6.50;4.80;;;;;;;10.52;100.00;100693.69;1711241;80;21845;-65
2021/04/17 07:20:13;;;;;;;7.37;5.23;;;;;;;10.55;100.00;100696.45;1718317;81;22904;-66
2021/04/17 07:22:42;;;;;;;6.73;4.90;;;;;;;10.56;100.00;100693.66;1717897;80;21669;-65
2021/04/17 07:25:15;;;;;;;6.70;5.00;;;;;;;10.64;100.00;100687.09;1708018;80;21890;-67
2021/04/17 07:27:49;;;;;;;7.33;4.70;;;;;;;10.77;100.00;100683.92;1693506;83;21574;-64
2021/04/17 07:30:24;;;;;;;6.10;4.40;;;;;;;10.99;100.00;100678.89;1701216;83;21955;-67
2021/04/17 07:33:12;;;;;;;6.67;5.00;;;;;;;11.20;100.00;100680.32;1701545;83;21869;-68
2021/04/17 07:35:46;;;;;;;5.83;4.53;;;;;;;11.41;100.00;100681.77;1677201;83;21856;-68
2021/04/17 07:38:24;;;;;;;6.33;4.53;;;;;;;11.66;100.00;100673.17;1697272;82;21844;-68
2021/04/17 07:41:12;;;;;;;5.30;4.27;;;;;;;11.91;100.00;100677.67;1698903;82;22354;-68
2021/04/17 07:46:44;;;;;;;5.25;4.60;;;;;;;12.27;100.00;100675.59;1812415;78;28485;-67
2021/04/17 07:49:19;;;;;;;8.00;5.10;;;;;;;12.28;100.00;100679.84;1805377;78;20923;-72
2021/04/17 07:55:05;;;;;;;7.40;6.23;;;;;;;12.23;100.00;100671.72;1808945;77;23396;-67
2021/04/17 07:57:45;;;;;;;6.57;5.37;;;;;;;12.23;100.00;100674.83;1736382;81;21009;-69
2021/04/17 08:00:16;;;;;;;7.13;5.83;;;;;;;12.34;100.00;100672.55;1720653;82;22192;-67
2021/04/17 08:02:48;;;;;;;5.87;5.20;;;;;;;12.49;100.00;100669.90;1722798;82;21002;-66
2021/04/17 08:05:17;;;;;;;6.93;5.80;;;;;;;12.49;100.00;100672.52;1735425;81;21006;-65
2021/04/17 08:07:45;;;;;;;7.50;6.33;;;;;;;12.38;100.00;100664.66;1723023;82;20982;-66
2021/04/17 08:10:15;;;;;;;7.00;5.57;;;;;;;12.29;100.00;100669.69;1722525;82;20927;-68
2021/04/17 08:12:46;;;;;;;7.20;6.27;;;;;;;12.16;100.00;100667.74;1713031;82;21426;-68
2021/04/17 08:15:17;;;;;;;7.87;6.45;;;;;;;11.97;100.00;100668.31;1733770;82;21089;-66
2021/04/17 08:17:45;;;;;;;;;;;;;;;11.83;100.00;100668.63;1725471;82;21074;-66
2021/04/17 08:20:17;;;;;;;7.13;6.43;;;;;;;11.69;100.00;100669.41;1729148;82;20221;-66
2021/04/17 08:22:47;;;;;;;8.37;6.67;;;;;;;11.51;100.00;100666.33;1723585;82;21739;-68
2021/04/17 08:25:22;;;;;;;8.90;7.47;;;;;;;11.33;100.00;100671.91;1732457;82;21804;-66
2021/04/17 08:27:51;;;;;;;7.47;5.77;;;;;;;11.22;100.00;100667.92;1723082;81;21866;-66
2021/04/17 08:30:25;;;;;;;6.77;5.77;;;;;;;11.16;100.00;100664.70;1721352;82;21724;-68
2021/04/17 08:32:53;;;;;;;6.60;5.63;;;;;;;11.26;100.00;100660.55;1733653;82;21697;-67
2021/04/17 08:35:25;;;;;;;6.67;5.97;;;;;;;11.71;100.00;100659.60;1743733;82;22252;-65
2021/04/17 08:38:04;;;;;;;6.53;5.70;;;;;;;12.19;100.00;100657.40;1706446;80;21892;-66
2021/04/17 08:40:49;;;;;;;6.47;5.07;;;;;;;12.47;100.00;100661.95;1732216;81;22435;-65
2021/04/17 08:43:25;;;;;;;6.43;5.37;;;;;;;12.52;100.00;100663.50;1741190;81;21710;-66
2021/04/17 08:46:05;;;;;;;7.10;5.83;;;;;;;12.54;100.00;100670.64;1729854;81;21729;-66
2021/04/17 08:48:55;;;;;;;6.92;5.60;;;;;;;12.52;100.00;100676.58;1735316;81;22888;-65
2021/04/17 08:51:31;;;;;;;5.90;5.30;;;;;;;12.41;100.00;100676.05;1734140;80;22252;-66
2021/04/17 08:54:06;;;;;;;5.90;4.87;;;;;;;12.25;100.00;100683.31;1740792;81;21059;-65
2021/04/17 08:57:00;;;;;;;6.57;5.63;;;;;;;11.64;100.00;100680.89;1775209;79;21140;-65
2021/04/17 08:59:31;;;;;;;6.87;5.93;;;;;;;11.64;100.00;100680.89;1780698;79;22232;-66
2021/04/17 09:02:11;;;;;;;8.40;7.20;;;;;;;11.44;100.00;100682.72;1736640;81;21903;-65
2021/04/17 09:05:02;;;;;;;7.47;6.43;;;;;;;11.29;100.00;100680.58;1749923;79;21720;-65
2021/04/17 09:07:31;;;;;;;8.53;7.07;;;;;;;11.13;100.00;100680.20;1784772;79;21655;-67
2021/04/17 09:10:23;;;;;;;8.00;7.03;;;;;;;10.89;100.00;100677.80;1716692;82;21724;-66
2021/04/17 09:13:18;;;;;;;8.33;7.13;;;;;;;10.89;100.00;100677.80;1696545;82;23155;-66
2021/04/17 09:15:57;;;;;;;7.97;6.77;;;;;;;10.81;100.00;100683.09;1773758;79;21605;-66
2021/04/17 09:18:38;;;;;;;8.70;6.70;;;;;;;10.86;100.00;100681.56;1780683;79;22972;-65
2021/04/17 09:21:20;;;;;;;7.30;6.27;;;;;;;11.01;100.00;100682.12;1775123;79;21729;-65
2021/04/17 09:23:56;;;;;;;8.83;7.10;;;;;;;11.23;100.00;100682.58;1784086;78;21685;-66
2021/04/17 09:26:36;;;;;;;8.43;6.93;;;;;;;11.39;100.00;100670.68;1776706;78;22256;-65
2021/04/17 09:29:22;;;;;;;7.33;6.10;;;;;;;11.39;100.00;100670.68;1780133;79;22302;-66
2021/04/17 09:31:52;;;;;;;8.33;6.90;;;;;;;11.54;100.00;100676.42;1782166;79;22418;-66
2021/04/17 09:34:21;;;;;;;8.83;6.03;;;;;;;11.50;100.00;100670.74;1784462;79;21817;-66
2021/04/17 09:36:50;;;;;;;6.90;6.00;;;;;;;11.42;100.00;100664.30;1779056;79;21765;-69
2021/04/17 09:39:30;;;;;;;7.70;6.03;;;;;;;11.38;100.00;100662.55;1776692;79;22303;-68
2021/04/17 09:42:03;;;;;;;8.70;7.23;;;;;;;11.40;100.00;100658.44;1786427;79;21863;-66
2021/04/17 09:44:45;;;;;;;8.10;6.37;;;;;;;11.39;100.00;100661.55;1783630;79;22405;-67
2021/04/17 09:47:16;;;;;;;8.27;7.00;;;;;;;11.47;100.00;100662.45;1786142;79;21715;-66
2021/04/17 09:49:49;;;;;;;8.00;6.27;;;;;;;11.47;100.00;100662.45;1785487;78;21548;-67
2021/04/17 09:55:02;;;;;;;8.17;7.27;;;;;;;11.40;100.00;100663.66;1815420;78;23468;-65
2021/04/17 09:57:31;;;;;;;8.67;7.43;;;;;;;11.31;100.00;100667.34;1738376;82;21005;-68
2021/04/17 10:00:01;;;;;;;9.13;7.23;;;;;;;11.32;100.00;100672.38;1738637;80;22279;-64
2021/04/17 10:02:44;;;;;;;8.70;6.92;;;;;;;11.38;100.00;100667.77;1770506;80;22307;-67
2021/04/17 10:05:15;;;;;;;8.17;6.97;;;;;;;11.63;100.00;100675.33;1732906;81;21390;-65
2021/04/17 10:07:44;;;;;;;7.63;6.80;;;;;;;11.90;100.00;100667.42;1735366;81;21813;-65
2021/04/17 10:10:14;;;;;;;8.20;6.97;;;;;;;12.07;100.00;100668.02;1750337;80;21645;-65
2021/04/17 10:12:50;;;;;;;7.27;6.27;;;;;;;12.18;100.00;100671.47;1742345;80;22350;-65
2021/04/17 10:15:25;;;;;;;9.97;7.33;;;;;;;12.26;100.00;100671.36;1740633;80;22286;-63
2021/04/17 10:17:58;;;;;;;8.23;7.00;;;;;;;12.34;100.00;100673.86;1730658;82;21495;-66
2021/04/17 10:20:28;;;;;;;8.33;7.10;;;;;;;12.65;100.00;100668.84;1736450;80;21921;-65
2021/04/17 10:22:58;;;;;;;9.03;7.50;;;;;;;13.29;100.00;100660.97;1760187;80;21168;-64
2021/04/17 10:25:41;;;;;;;7.60;6.77;;;;;;;14.07;100.00;100666.05;1738612;80;21258;-66
2021/04/17 10:28:22;;;;;;;8.10;7.03;;;;;;;14.71;100.00;100664.33;1748960;81;21234;-66
2021/04/17 10:31:11;;;;;;;7.37;6.63;;;;;;;15.10;96.02;100669.30;1737248;81;21618;-67
2021/04/17 10:33:44;;;;;;;7.93;6.43;;;;;;;15.48;88.96;100668.14;1741601;80;22502;-66
2021/04/17 10:36:20;;;;;;;7.17;6.13;;;;;;;15.71;81.82;100659.83;1743629;81;21164;-67
2021/04/17 10:38:49;;;;;;;7.50;6.43;;;;;;;16.02;78.20;100663.56;1764389;80;22148;-69
2021/04/17 10:41:28;;;;;;;6.23;5.63;;;;;;;16.30;68.95;100664.05;1744137;81;20983;-67
2021/04/17 10:44:13;;;;;;;6.87;5.63;;;;;;;16.33;65.79;100660.20;1745966;80;21136;-68
2021/04/17 10:46:47;;;;;;;7.10;5.97;;;;;;;16.19;65.82;100667.86;1756815;80;21046;-66
2021/04/17 10:49:35;;;;;;;6.17;4.63;;;;;;;15.96;64.92;100664.42;1736845;80;21000;-65
2021/04/17 10:52:10;;;;;;;5.90;4.37;;;;;;;15.73;61.09;100667.02;1732251;81;22149;-69
2021/04/17 10:54:52;;;;;;;7.57;4.90;;;;;;;15.25;61.79;100671.20;1727283;81;21571;-67
2021/04/17 10:57:20;;;;;;;5.80;4.57;;;;;;;14.87;66.30;100671.52;1724404;82;21149;-63
2021/04/17 11:00:01;;;;;;;6.50;5.23;;;;;;;14.48;70.37;100676.98;1752512;80;21038;-67
2021/04/17 11:02:34;;;;;;;6.07;5.20;;;;;;;14.21;76.20;100675.59;1795815;79;21176;-64
2021/04/17 11:05:05;;;;;;;6.03;5.23;;;;;;;13.91;78.99;100682.11;1792274;79;21201;-64
2021/04/17 11:07:36;;;;;;;6.97;6.22;;;;;;;13.62;84.24;100682.14;1789592;79;21181;-68
2021/04/17 11:10:08;;;;;;;8.87;6.23;;;;;;;13.50;88.40;100678.95;1790427;79;21023;-64
2021/04/17 11:12:37;;;;;;;7.47;5.08;;;;;;;13.38;92.63;100683.41;1798192;79;28498;-65
2021/04/17 11:15:18;;;;;;;70.67;59.03;;;;;;;13.36;93.50;100681.97;1792749;79;21145;-64
2021/04/17 11:18:16;;;;;;;29.00;25.97;;;;;;;13.34;92.34;100680.05;1800853;79;22071;-66
2021/04/17 11:20:58;;;;;;;12.23;10.23;;;;;;;13.33;94.16;100674.02;1734069;81;21191;-70
2021/04/17 11:23:45;;;;;;;15.50;12.83;;;;;;;13.29;93.01;100677.98;1755500;81;21623;-65
2021/04/17 11:26:23;;;;;;;9.23;7.13;;;;;;;13.24;95.76;100681.69;1739994;82;20994;-65
2021/04/17 11:29:02;;;;;;;7.53;6.00;;;;;;;13.23;96.50;100680.07;1732803;82;21568;-65
2021/04/17 11:31:34;;;;;;;8.73;7.57;;;;;;;13.21;97.91;100676.79;1782421;79;21208;-65
2021/04/17 11:34:04;;;;;;;11.47;10.47;;;;;;;13.21;98.98;100687.27;1791501;79;21014;-67
2021/04/17 11:36:33;;;;;;;34.00;30.30;;;;;;;13.27;96.56;100687.86;1791741;79;20915;-65
2021/04/17 11:39:05;;;;;;;70.67;59.42;;;;;;;13.32;94.83;100678.92;1786402;79;21535;-65
2021/04/17 11:41:33;;;;;;;43.67;35.70;;;;;;;13.37;91.93;100684.41;1773087;79;21081;-65
2021/04/17 11:44:03;;;;;;;27.40;24.43;;;;;;;13.41;88.59;100686.62;1799198;79;21382;-68
2021/04/17 11:46:33;;;;;;;15.97;14.47;;;;;;;13.36;87.89;100689.32;1782495;79;21078;-65
2021/04/17 11:49:03;;;;;;;8.00;6.83;;;;;;;13.24;90.00;100684.80;1797291;78;21140;-65
2021/04/17 11:51:33;;;;;;;7.83;6.50;;;;;;;13.12;92.08;100685.80;1805086;79;21045;-65
2021/04/17 11:54:03;;;;;;;8.80;6.37;;;;;;;13.01;93.23;100679.25;1777470;79;21114;-67
2021/04/17 11:56:33;;;;;;;6.67;5.50;;;;;;;12.91;95.44;100686.60;1785000;79;22690;-64
2021/04/17 11:59:04;;;;;;;7.53;6.27;;;;;;;12.83;95.75;100689.34;1732550;82;21098;-64
2021/04/17 12:01:34;;;;;;;7.00;5.93;;;;;;;12.72;95.67;100689.34;1762724;80;21092;-65
2021/04/17 12:04:04;;;;;;;8.33;6.20;;;;;;;12.61;95.94;100684.13;1770287;79;21161;-68
2021/04/17 12:06:32;;;;;;;7.20;5.83;;;;;;;12.57;96.20;100689.89;1780384;79;22242;-65
2021/04/17 12:09:03;;;;;;;6.30;5.00;;;;;;;12.56;97.50;100689.09;1791502;79;21704;-66
2021/04/17 12:11:32;;;;;;;7.42;5.28;;;;;;;12.58;94.67;100689.72;1777945;79;21722;-65
2021/04/17 12:14:00;;;;;;;8.63;5.87;;;;;;;12.60;93.33;100689.53;1731004;82;20997;-67
2021/04/17 12:16:30;;;;;;;8.30;7.33;;;;;;;12.57;91.97;100695.13;1786359;79;21884;-65
2021/04/17 12:19:01;;;;;;;17.75;16.05;;;;;;;12.57;91.97;100695.13;1780529;79;21592;-65
2021/04/17 12:21:30;;;;;;;22.00;20.00;;;;;;;12.50;93.47;100692.46;1779489;79;21357;-67
2021/04/17 12:24:00;;;;;;;11.07;9.97;;;;;;;12.34;96.20;100694.77;1796997;79;22293;-67
2021/04/17 12:26:28;;;;;;;11.33;9.10;;;;;;;12.34;96.20;100694.77;1779419;79;21026;-66
2021/04/17 12:28:56;;;;;;;8.70;7.63;;;;;;;12.23;98.38;100694.44;1780901;79;21699;-67
2021/04/17 12:31:26;;;;;;;11.20;8.60;;;;;;;12.11;100.00;100694.09;1770156;79;21893;-66
2021/04/17 12:33:55;;;;;;;9.97;7.90;;;;;;;11.99;100.00;100699.47;1788079;79;21866;-67
2021/04/17 12:36:24;;;;;;;9.73;8.20;;;;;;;11.90;100.00;100686.52;1732113;81;21912;-69
2021/04/17 12:38:56;;;;;;;10.77;8.23;;;;;;;11.83;100.00;100688.22;1730396;82;21869;-68
2021/04/17 12:41:25;;;;;;;11.10;9.00;;;;;;;11.77;100.00;100685.48;1710671;82;21870;-67
2021/04/17 12:43:55;;;;;;;10.53;8.53;;;;;;;11.73;100.00;100684.22;1723808;81;21219;-67
2021/04/17 12:46:24;;;;;;;10.87;9.13;;;;;;;11.69;100.00;100681.96;1775549;79;21361;-68
2021/04/17 12:48:53;;;;;;;10.27;9.17;;;;;;;11.59;100.00;100681.44;1772470;79;21672;-67
2021/04/17 12:51:22;;;;;;;11.40;9.47;;;;;;;11.51;100.00;100678.88;1781861;79;21999;-67
2021/04/17 12:53:53;;;;;;;12.07;9.77;;;;;;;11.51;100.00;100678.88;1778178;79;21527;-68
2021/04/17 12:56:24;;;;;;;22.57;20.30;;;;;;;11.45;100.00;100677.81;1719868;82;21925;-68
2021/04/17 12:58:53;;;;;;;45.63;40.98;;;;;;;11.45;100.00;100675.20;1749397;80;21844;-67
2021/04/17 13:01:22;;;;;;;22.20;19.90;;;;;;;11.53;100.00;100673.50;1761248;80;21212;-67
2021/04/17 13:03:52;;;;;;;11.23;10.07;;;;;;;11.57;100.00;100674.77;1753952;80;21614;-67
2021/04/17 13:06:21;;;;;;;13.77;10.83;;;;;;;11.64;100.00;100673.06;1708666;83;21941;-67
2021/04/17 13:08:50;;;;;;;11.87;10.67;;;;;;;11.73;100.00;100674.58;1750947;80;21830;-67
2021/04/17 13:11:21;;;;;;;14.13;12.63;;;;;;;11.81;100.00;100667.15;1760292;80;21821;-67
2021/04/17 13:13:50;;;;;;;14.03;11.43;;;;;;;11.85;100.00;100674.97;1755830;80;21568;-68
2021/04/17 13:16:18;;;;;;;12.43;10.00;;;;;;;11.86;100.00;100673.50;1745729;80;22289;-68
2021/04/17 13:18:49;;;;;;;11.57;10.37;;;;;;;11.88;100.00;100669.38;1771651;80;21803;-69
2021/04/17 13:21:19;;;;;;;11.80;9.90;;;;;;;11.86;100.00;100676.11;1759856;80;21700;-69
2021/04/17 13:23:47;;;;;;;11.07;9.60;;;;;;;11.84;100.00;100677.27;1760116;80;21644;-69
2021/04/17 13:26:17;;;;;;;12.27;10.97;;;;;;;11.86;100.00;100677.41;1694129;83;21790;-67
2021/04/17 13:28:47;;;;;;;12.47;11.17;;;;;;;11.93;100.00;100674.40;1747989;80;21918;-70
2021/04/17 13:31:16;;;;;;;12.73;10.23;;;;;;;12.08;100.00;100678.77;1754641;80;21768;-69
2021/04/17 13:33:45;;;;;;;12.77;11.10;;;;;;;12.08;100.00;100678.77;1759020;80;21457;-68
2021/04/17 13:36:15;;;;;;;10.47;9.27;;;;;;;12.13;100.00;100677.75;1758632;80;21760;-69
2021/04/17 13:38:43;;;;;;;11.17;9.63;;;;;;;12.24;100.00;100677.28;1701546;82;21920;-67
2021/04/17 13:41:11;;;;;;;11.03;9.77;;;;;;;12.33;100.00;100687.13;1710450;82;21699;-69
2021/04/17 13:43:40;;;;;;;10.60;9.20;;;;;;;12.40;100.00;100686.70;1713081;83;21841;-69
2021/04/17 13:46:08;;;;;;;9.93;8.63;;;;;;;12.48;100.00;100677.94;1751867;80;22425;-70
2021/04/17 13:48:37;;;;;;;10.93;9.27;;;;;;;12.47;100.00;100681.56;1746618;80;22349;-69
2021/04/17 13:51:07;;;;;;;9.40;8.07;;;;;;;12.40;100.00;100681.48;1759460;80;22345;-68
2021/04/17 13:53:36;;;;;;;11.10;10.00;;;;;;;12.38;100.00;100677.72;1760095;80;21857;-69
2021/04/17 13:56:06;;;;;;;10.23;9.03;;;;;;;12.41;100.00;100681.28;1774174;79;21799;-69
2021/04/17 13:58:38;;;;;;;11.67;10.10;;;;;;;12.39;100.00;100682.48;1778812;79;21868;-70
2021/04/17 14:01:08;;;;;;;11.40;10.20;;;;;;;12.30;100.00;100688.30;1775679;79;26773;-70
2021/04/17 14:03:38;;;;;;;13.40;11.85;;;;;;;12.17;100.00;100685.54;1775681;79;21248;-70
2021/04/17 14:06:08;;;;;;;13.93;11.27;;;;;;;12.06;100.00;100684.70;1782915;79;21055;-70
2021/04/17 14:08:37;;;;;;;13.53;10.33;;;;;;;12.08;100.00;100680.08;1781831;79;21806;-70
2021/04/17 14:11:06;;;;;;;14.40;11.17;;;;;;;12.18;100.00;100676.70;1774331;79;21804;-70
2021/04/17 14:13:34;;;;;;;16.33;11.73;;;;;;;12.28;100.00;100669.38;1778673;79;21888;-69
2021/04/17 14:16:06;;;;;;;12.27;10.97;;;;;;;12.37;100.00;100665.66;1786492;79;21546;-69
2021/04/17 14:18:34;;;;;;;10.73;9.10;;;;;;;12.51;100.00;100663.20;1783120;79;21899;-69
2021/04/17 14:21:03;;;;;;;10.50;9.40;;;;;;;12.62;100.00;100660.89;1775884;79;21929;-70
2021/04/17 14:23:32;;;;;;;16.20;13.17;;;;;;;12.65;100.00;100661.00;1772615;79;21669;-70
2021/04/17 14:26:01;;;;;;;16.47;13.90;;;;;;;12.65;100.00;100661.00;1730891;82;21418;-69
2021/04/17 14:28:32;;;;;;;11.43;10.13;;;;;;;12.55;100.00;100667.05;1759071;80;21918;-69
2021/04/17 14:31:02;;;;;;;11.27;9.57;;;;;;;12.43;100.00;100668.05;1749367;81;22230;-71
2021/04/17 14:33:31;;;;;;;10.77;8.93;;;;;;;12.33;100.00;100661.79;1761094;81;21896;-70
2021/04/17 14:36:02;;;;;;;10.32;9.10;;;;;;;12.23;100.00;100665.19;1791704;79;21786;-71
2021/04/17 14:38:31;;;;;;;12.10;10.17;;;;;;;12.16;100.00;100664.33;1793694;79;22640;-71
2021/04/17 14:41:01;;;;;;;11.47;9.60;;;;;;;12.13;100.00;100662.88;1778404;79;21870;-72
2021/04/17 14:43:30;;;;;;;11.63;10.43;;;;;;;12.20;100.00;100659.52;1724487;80;22134;-69